sensor_id;sensor_type;location;lat;lon;timestamp;P1;durP1;ratioP1;P2;durP2;ratioP2
76208;SDS011;64990;51.698;-0.292;2023-11-19T00:00:46;57.63;;;8.40;;
76208;SDS011;64990;51.698;-0.292;2023-11-19T00:03:12;49.92;;;11.38;;
76208;SDS011;64990;51.698;-0.292;2023-11-19T00:05:39;71.72;;;11.45;;
76208;SDS011;64990;51.698;-0.292;2023-11-19T00:08:05;89.55;;;14.85;;
76208;SDS011;64990;51.698;-0.292;2023-11-19T00:10:31;66.53;;;11.25;;
76208;SDS011;64990;51.698;-0.292;2023-11-19T00:12:57;43.78;;;8.60;;
76208;SDS011;64990;51.698;-0.292;2023-11-19T00:15:23;55.53;;;8.98;;
76208;SDS011;64990;51.698;-0.292;2023-11-19T00:17:50;77.85;;;12.23;;
76208;SDS011;64990;51.698;-0.292;2023-11-19T00:20:17;46.35;;;6.63;;
76208;SDS011;64990;51.698;-0.292;2023-11-19T00:22:44;80.38;;;10.10;;
76208;SDS011;64990;51.698;-0.292;2023-11-19T00:25:13;54.50;;;7.30;;
76208;SDS011;64990;51.698;-0.292;2023-11-19T00:27:40;87.07;;;9.40;;
76208;SDS011;64990;51.698;-0.292;2023-11-19T00:30:06;43.10;;;10.55;;
76208;SDS011;64990;51.698;-0.292;2023-11-19T00:32:35;54.25;;;10.45;;
76208;SDS011;64990;51.698;-0.292;2023-11-19T00:35:03;63.72;;;9.82;;
76208;SDS011;64990;51.698;-0.292;2023-11-19T00:37:30;53.70;;;8.68;;
76208;SDS011;64990;51.698;-0.292;2023-11-19T00:39:56;66.28;;;11.45;;
76208;SDS011;64990;51.698;-0.292;2023-11-19T00:42:23;63.67;;;9.10;;
76208;SDS011;64990;51.698;-0.292;2023-11-19T00:44:50;64.47;;;10.93;;
76208;SDS011;64990;51.698;-0.292;2023-11-19T00:47:16;63.83;;;12.32;;
76208;SDS011;64990;51.698;-0.292;2023-11-19T00:49:42;61.50;;;10.68;;
76208;SDS011;64990;51.698;-0.292;2023-11-19T00:52:08;68.85;;;12.10;;
76208;SDS011;64990;51.698;-0.292;2023-11-19T00:54:34;91.03;;;11.70;;
76208;SDS011;64990;51.698;-0.292;2023-11-19T00:57:00;56.95;;;12.55;;
76208;SDS011;64990;51.698;-0.292;2023-11-19T00:59:26;50.33;;;8.40;;
76208;SDS011;64990;51.698;-0.292;2023-11-19T01:01:53;51.35;;;9.52;;
76208;SDS011;64990;51.698;-0.292;2023-11-19T01:04:21;41.80;;;7.15;;
76208;SDS011;64990;51.698;-0.292;2023-11-19T01:06:49;53.70;;;11.13;;
76208;SDS011;64990;51.698;-0.292;2023-11-19T01:09:15;52.20;;;8.95;;
76208;SDS011;64990;51.698;-0.292;2023-11-19T01:11:41;60.53;;;8.80;;
76208;SDS011;64990;51.698;-0.292;2023-11-19T01:14:07;55.47;;;8.27;;
76208;SDS011;64990;51.698;-0.292;2023-11-19T01:16:33;42.25;;;8.13;;
76208;SDS011;64990;51.698;-0.292;2023-11-19T01:18:59;59.42;;;7.50;;
76208;SDS011;64990;51.698;-0.292;2023-11-19T01:21:29;44.75;;;8.35;;
76208;SDS011;64990;51.698;-0.292;2023-11-19T01:23:56;66.75;;;10.38;;
76208;SDS011;64990;51.698;-0.292;2023-11-19T01:26:23;62.90;;;11.70;;
76208;SDS011;64990;51.698;-0.292;2023-11-19T01:28:49;107.68;;;14.82;;
76208;SDS011;64990;51.698;-0.292;2023-11-19T01:31:17;60.63;;;9.43;;
76208;SDS011;64990;51.698;-0.292;2023-11-19T01:33:44;51.28;;;9.30;;
76208;SDS011;64990;51.698;-0.292;2023-11-19T01:36:14;56.08;;;10.57;;
76208;SDS011;64990;51.698;-0.292;2023-11-19T01:38:41;46.60;;;7.65;;
76208;SDS011;64990;51.698;-0.292;2023-11-19T01:41:07;68.72;;;8.65;;
76208;SDS011;64990;51.698;-0.292;2023-11-19T01:46:00;29.48;;;8.45;;
76208;SDS011;64990;51.698;-0.292;2023-11-19T01:48:26;43.75;;;7.90;;
76208;SDS011;64990;51.698;-0.292;2023-11-19T01:50:52;74.95;;;11.48;;
76208;SDS011;64990;51.698;-0.292;2023-11-19T01:53:19;73.80;;;10.00;;
76208;SDS011;64990;51.698;-0.292;2023-11-19T01:55:46;73.22;;;10.82;;
76208;SDS011;64990;51.698;-0.292;2023-11-19T01:58:13;57.08;;;12.02;;
76208;SDS011;64990;51.698;-0.292;2023-11-19T02:00:39;51.95;;;7.93;;
76208;SDS011;64990;51.698;-0.292;2023-11-19T02:03:06;69.85;;;9.68;;
76208;SDS011;64990;51.698;-0.292;2023-11-19T02:05:33;68.57;;;9.13;;
76208;SDS011;64990;51.698;-0.292;2023-11-19T02:07:59;76.57;;;10.70;;
76208;SDS011;64990;51.698;-0.292;2023-11-19T02:10:26;59.47;;;10.18;;
76208;SDS011;64990;51.698;-0.292;2023-11-19T02:12:52;61.92;;;11.48;;
76208;SDS011;64990;51.698;-0.292;2023-11-19T02:15:18;57.67;;;8.45;;
76208;SDS011;64990;51.698;-0.292;2023-11-19T02:17:44;44.55;;;9.75;;
76208;SDS011;64990;51.698;-0.292;2023-11-19T02:20:10;24.92;;;5.47;;
76208;SDS011;64990;51.698;-0.292;2023-11-19T02:22:40;39.75;;;8.77;;
76208;SDS011;64990;51.698;-0.292;2023-11-19T02:25:14;51.20;;;8.90;;
76208;SDS011;64990;51.698;-0.292;2023-11-19T02:32:42;67.43;;;11.63;;
76208;SDS011;64990;51.698;-0.292;2023-11-19T02:35:08;64.80;;;10.95;;
76208;SDS011;64990;51.698;-0.292;2023-11-19T02:37:34;56.28;;;9.88;;
76208;SDS011;64990;51.698;-0.292;2023-11-19T02:40:00;66.97;;;8.55;;
76208;SDS011;64990;51.698;-0.292;2023-11-19T02:42:28;65.45;;;8.38;;
76208;SDS011;64990;51.698;-0.292;2023-11-19T02:44:54;58.30;;;9.57;;
76208;SDS011;64990;51.698;-0.292;2023-11-19T02:47:20;37.60;;;8.55;;
76208;SDS011;64990;51.698;-0.292;2023-11-19T02:49:49;74.97;;;11.70;;
76208;SDS011;64990;51.698;-0.292;2023-11-19T02:52:15;51.80;;;8.60;;
76208;SDS011;64990;51.698;-0.292;2023-11-19T02:54:42;44.83;;;8.07;;
76208;SDS011;64990;51.698;-0.292;2023-11-19T02:57:08;54.65;;;6.90;;
76208;SDS011;64990;51.698;-0.292;2023-11-19T02:59:37;50.92;;;11.43;;
76208;SDS011;64990;51.698;-0.292;2023-11-19T03:02:06;55.72;;;9.27;;
76208;SDS011;64990;51.698;-0.292;2023-11-19T03:04:36;27.38;;;6.53;;
76208;SDS011;64990;51.698;-0.292;2023-11-19T03:07:05;54.95;;;7.90;;
76208;SDS011;64990;51.698;-0.292;2023-11-19T03:09:32;59.60;;;7.82;;
76208;SDS011;64990;51.698;-0.292;2023-11-19T03:12:00;66.15;;;7.63;;
76208;SDS011;64990;51.698;-0.292;2023-11-19T03:14:26;41.15;;;7.30;;
76208;SDS011;64990;51.698;-0.292;2023-11-19T03:16:52;48.53;;;8.85;;
76208;SDS011;64990;51.698;-0.292;2023-11-19T03:19:18;46.25;;;9.90;;
76208;SDS011;64990;51.698;-0.292;2023-11-19T03:21:44;59.03;;;9.18;;
76208;SDS011;64990;51.698;-0.292;2023-11-19T03:24:12;58.30;;;8.18;;
76208;SDS011;64990;51.698;-0.292;2023-11-19T03:26:39;44.58;;;8.25;;
76208;SDS011;64990;51.698;-0.292;2023-11-19T03:29:05;80.00;;;9.63;;
76208;SDS011;64990;51.698;-0.292;2023-11-19T03:31:31;57.78;;;10.25;;
76208;SDS011;64990;51.698;-0.292;2023-11-19T03:33:57;48.63;;;7.68;;
76208;SDS011;64990;51.698;-0.292;2023-11-19T03:36:23;61.20;;;8.35;;
76208;SDS011;64990;51.698;-0.292;2023-11-19T03:38:49;53.95;;;8.23;;
76208;SDS011;64990;51.698;-0.292;2023-11-19T03:41:15;38.95;;;9.10;;
76208;SDS011;64990;51.698;-0.292;2023-11-19T03:43:42;60.13;;;7.72;;
76208;SDS011;64990;51.698;-0.292;2023-11-19T03:46:17;52.05;;;10.00;;
76208;SDS011;64990;51.698;-0.292;2023-11-19T03:48:44;33.17;;;6.55;;
76208;SDS011;64990;51.698;-0.292;2023-11-19T03:51:11;50.88;;;8.90;;
76208;SDS011;64990;51.698;-0.292;2023-11-19T03:53:41;47.70;;;6.90;;
76208;SDS011;64990;51.698;-0.292;2023-11-19T03:56:07;48.92;;;6.68;;
76208;SDS011;64990;51.698;-0.292;2023-11-19T03:58:34;40.58;;;6.95;;
76208;SDS011;64990;51.698;-0.292;2023-11-19T04:01:01;45.95;;;7.82;;
76208;SDS011;64990;51.698;-0.292;2023-11-19T04:03:27;32.45;;;6.30;;
76208;SDS011;64990;51.698;-0.292;2023-11-19T04:05:53;41.88;;;7.43;;
76208;SDS011;64990;51.698;-0.292;2023-11-19T04:08:19;61.67;;;11.68;;
76208;SDS011;64990;51.698;-0.292;2023-11-19T04:10:46;41.22;;;7.43;;
76208;SDS011;64990;51.698;-0.292;2023-11-19T04:13:13;28.80;;;6.68;;
76208;SDS011;64990;51.698;-0.292;2023-11-19T04:15:39;45.90;;;9.07;;
76208;SDS011;64990;51.698;-0.292;2023-11-19T04:18:05;49.15;;;7.88;;
76208;SDS011;64990;51.698;-0.292;2023-11-19T04:20:32;49.85;;;7.30;;
76208;SDS011;64990;51.698;-0.292;2023-11-19T04:22:58;40.70;;;7.55;;
76208;SDS011;64990;51.698;-0.292;2023-11-19T04:25:25;45.40;;;6.80;;
76208;SDS011;64990;51.698;-0.292;2023-11-19T04:27:51;42.90;;;7.80;;
76208;SDS011;64990;51.698;-0.292;2023-11-19T04:30:18;79.72;;;9.82;;
76208;SDS011;64990;51.698;-0.292;2023-11-19T04:32:44;55.47;;;6.82;;
76208;SDS011;64990;51.698;-0.292;2023-11-19T04:35:10;63.25;;;8.10;;
76208;SDS011;64990;51.698;-0.292;2023-11-19T04:37:36;67.53;;;10.07;;
76208;SDS011;64990;51.698;-0.292;2023-11-19T04:40:04;53.10;;;9.63;;
76208;SDS011;64990;51.698;-0.292;2023-11-19T04:42:30;66.40;;;8.35;;
76208;SDS011;64990;51.698;-0.292;2023-11-19T04:44:57;41.20;;;8.48;;
76208;SDS011;64990;51.698;-0.292;2023-11-19T04:47:23;48.13;;;6.80;;
76208;SDS011;64990;51.698;-0.292;2023-11-19T04:49:49;55.60;;;9.70;;
76208;SDS011;64990;51.698;-0.292;2023-11-19T04:52:15;58.60;;;8.57;;
76208;SDS011;64990;51.698;-0.292;2023-11-19T04:54:42;63.13;;;9.35;;
76208;SDS011;64990;51.698;-0.292;2023-11-19T04:57:11;40.20;;;6.60;;
76208;SDS011;64990;51.698;-0.292;2023-11-19T04:59:37;37.53;;;7.80;;
76208;SDS011;64990;51.698;-0.292;2023-11-19T05:02:03;67.32;;;9.77;;
76208;SDS011;64990;51.698;-0.292;2023-11-19T05:04:30;63.47;;;11.25;;
76208;SDS011;64990;51.698;-0.292;2023-11-19T05:06:56;66.40;;;11.00;;
76208;SDS011;64990;51.698;-0.292;2023-11-19T05:09:22;41.90;;;7.60;;
76208;SDS011;64990;51.698;-0.292;2023-11-19T05:11:48;46.72;;;9.52;;
76208;SDS011;64990;51.698;-0.292;2023-11-19T05:14:14;53.28;;;8.23;;
76208;SDS011;64990;51.698;-0.292;2023-11-19T05:16:41;51.83;;;7.97;;
76208;SDS011;64990;51.698;-0.292;2023-11-19T05:19:08;36.47;;;8.18;;
76208;SDS011;64990;51.698;-0.292;2023-11-19T05:21:34;38.83;;;7.72;;
76208;SDS011;64990;51.698;-0.292;2023-11-19T05:24:01;58.38;;;9.85;;
76208;SDS011;64990;51.698;-0.292;2023-11-19T05:26:29;50.22;;;7.75;;
76208;SDS011;64990;51.698;-0.292;2023-11-19T05:28:56;48.03;;;7.28;;
76208;SDS011;64990;51.698;-0.292;2023-11-19T05:31:22;63.25;;;8.77;;
76208;SDS011;64990;51.698;-0.292;2023-11-19T05:33:48;65.00;;;8.70;;
76208;SDS011;64990;51.698;-0.292;2023-11-19T05:36:15;57.85;;;9.48;;
76208;SDS011;64990;51.698;-0.292;2023-11-19T05:38:42;64.18;;;8.80;;
76208;SDS011;64990;51.698;-0.292;2023-11-19T05:41:09;54.08;;;8.02;;
76208;SDS011;64990;51.698;-0.292;2023-11-19T05:43:35;50.28;;;6.82;;
76208;SDS011;64990;51.698;-0.292;2023-11-19T05:46:02;61.72;;;9.60;;
76208;SDS011;64990;51.698;-0.292;2023-11-19T05:48:28;68.90;;;9.10;;
76208;SDS011;64990;51.698;-0.292;2023-11-19T05:50:54;53.53;;;8.75;;
76208;SDS011;64990;51.698;-0.292;2023-11-19T05:53:21;42.63;;;7.70;;
76208;SDS011;64990;51.698;-0.292;2023-11-19T05:55:47;83.75;;;10.68;;
76208;SDS011;64990;51.698;-0.292;2023-11-19T05:58:23;59.78;;;8.35;;
76208;SDS011;64990;51.698;-0.292;2023-11-19T06:00:50;53.15;;;7.03;;
76208;SDS011;64990;51.698;-0.292;2023-11-19T06:03:18;51.00;;;7.28;;
76208;SDS011;64990;51.698;-0.292;2023-11-19T06:05:44;45.65;;;8.02;;
76208;SDS011;64990;51.698;-0.292;2023-11-19T06:08:11;56.88;;;7.85;;
76208;SDS011;64990;51.698;-0.292;2023-11-19T06:10:38;48.85;;;6.97;;
76208;SDS011;64990;51.698;-0.292;2023-11-19T06:13:05;42.13;;;6.55;;
76208;SDS011;64990;51.698;-0.292;2023-11-19T06:15:32;44.78;;;6.15;;
76208;SDS011;64990;51.698;-0.292;2023-11-19T06:17:58;53.55;;;8.80;;
76208;SDS011;64990;51.698;-0.292;2023-11-19T06:20:26;31.13;;;6.32;;
76208;SDS011;64990;51.698;-0.292;2023-11-19T06:22:56;36.75;;;6.53;;
76208;SDS011;64990;51.698;-0.292;2023-11-19T06:25:26;52.65;;;7.90;;
76208;SDS011;64990;51.698;-0.292;2023-11-19T06:27:52;61.97;;;9.30;;
76208;SDS011;64990;51.698;-0.292;2023-11-19T06:30:19;40.47;;;4.93;;
76208;SDS011;64990;51.698;-0.292;2023-11-19T06:32:45;35.72;;;5.00;;
76208;SDS011;64990;51.698;-0.292;2023-11-19T06:35:12;50.88;;;8.30;;
76208;SDS011;64990;51.698;-0.292;2023-11-19T06:37:39;39.78;;;5.95;;
76208;SDS011;64990;51.698;-0.292;2023-11-19T06:40:05;57.38;;;9.68;;
76208;SDS011;64990;51.698;-0.292;2023-11-19T06:42:32;63.80;;;9.93;;
76208;SDS011;64990;51.698;-0.292;2023-11-19T06:44:58;39.38;;;7.13;;
76208;SDS011;64990;51.698;-0.292;2023-11-19T06:47:27;53.85;;;8.60;;
76208;SDS011;64990;51.698;-0.292;2023-11-19T06:49:54;31.23;;;6.85;;
76208;SDS011;64990;51.698;-0.292;2023-11-19T06:52:20;40.08;;;5.68;;
76208;SDS011;64990;51.698;-0.292;2023-11-19T06:54:46;64.43;;;9.45;;
76208;SDS011;64990;51.698;-0.292;2023-11-19T06:57:12;43.63;;;8.40;;
76208;SDS011;64990;51.698;-0.292;2023-11-19T06:59:39;56.15;;;7.75;;
76208;SDS011;64990;51.698;-0.292;2023-11-19T07:02:05;43.15;;;8.63;;
76208;SDS011;64990;51.698;-0.292;2023-11-19T07:04:31;38.13;;;6.75;;
76208;SDS011;64990;51.698;-0.292;2023-11-19T07:07:00;42.60;;;6.18;;
76208;SDS011;64990;51.698;-0.292;2023-11-19T07:09:26;46.78;;;7.47;;
76208;SDS011;64990;51.698;-0.292;2023-11-19T07:11:52;49.92;;;8.45;;
76208;SDS011;64990;51.698;-0.292;2023-11-19T07:14:19;45.05;;;6.95;;
76208;SDS011;64990;51.698;-0.292;2023-11-19T07:16:45;38.20;;;5.93;;
76208;SDS011;64990;51.698;-0.292;2023-11-19T07:19:11;35.05;;;8.80;;
76208;SDS011;64990;51.698;-0.292;2023-11-19T07:21:40;38.75;;;6.03;;
76208;SDS011;64990;51.698;-0.292;2023-11-19T07:24:09;48.25;;;7.43;;
76208;SDS011;64990;51.698;-0.292;2023-11-19T07:26:35;38.25;;;6.30;;
76208;SDS011;64990;51.698;-0.292;2023-11-19T07:29:02;37.22;;;7.63;;
76208;SDS011;64990;51.698;-0.292;2023-11-19T07:31:32;47.53;;;5.88;;
76208;SDS011;64990;51.698;-0.292;2023-11-19T07:33:58;36.45;;;8.05;;
76208;SDS011;64990;51.698;-0.292;2023-11-19T07:36:24;35.88;;;5.82;;
76208;SDS011;64990;51.698;-0.292;2023-11-19T07:38:50;43.08;;;6.97;;
76208;SDS011;64990;51.698;-0.292;2023-11-19T07:41:16;43.83;;;5.40;;
76208;SDS011;64990;51.698;-0.292;2023-11-19T07:43:43;45.72;;;7.78;;
76208;SDS011;64990;51.698;-0.292;2023-11-19T07:46:13;54.40;;;8.05;;
76208;SDS011;64990;51.698;-0.292;2023-11-19T07:48:39;35.92;;;4.85;;
76208;SDS011;64990;51.698;-0.292;2023-11-19T07:51:07;57.08;;;8.05;;
76208;SDS011;64990;51.698;-0.292;2023-11-19T07:53:33;48.10;;;8.02;;
76208;SDS011;64990;51.698;-0.292;2023-11-19T07:56:00;49.65;;;7.35;;
76208;SDS011;64990;51.698;-0.292;2023-11-19T07:58:26;46.75;;;9.77;;
76208;SDS011;64990;51.698;-0.292;2023-11-19T08:00:52;49.20;;;6.55;;
76208;SDS011;64990;51.698;-0.292;2023-11-19T08:03:18;31.58;;;5.25;;
76208;SDS011;64990;51.698;-0.292;2023-11-19T08:05:47;38.88;;;5.57;;
76208;SDS011;64990;51.698;-0.292;2023-11-19T08:08:13;46.28;;;8.60;;
76208;SDS011;64990;51.698;-0.292;2023-11-19T08:10:40;43.55;;;6.03;;
76208;SDS011;64990;51.698;-0.292;2023-11-19T08:13:06;28.98;;;5.28;;
76208;SDS011;64990;51.698;-0.292;2023-11-19T08:15:32;23.80;;;4.47;;
76208;SDS011;64990;51.698;-0.292;2023-11-19T08:18:00;31.35;;;6.05;;
76208;SDS011;64990;51.698;-0.292;2023-11-19T08:20:26;24.60;;;5.32;;
76208;SDS011;64990;51.698;-0.292;2023-11-19T08:22:52;27.63;;;5.45;;
76208;SDS011;64990;51.698;-0.292;2023-11-19T08:25:18;46.05;;;6.47;;
76208;SDS011;64990;51.698;-0.292;2023-11-19T08:27:44;49.05;;;5.47;;
76208;SDS011;64990;51.698;-0.292;2023-11-19T08:30:10;37.55;;;5.40;;
76208;SDS011;64990;51.698;-0.292;2023-11-19T08:32:37;42.75;;;4.78;;
76208;SDS011;64990;51.698;-0.292;2023-11-19T08:35:03;34.08;;;5.05;;
76208;SDS011;64990;51.698;-0.292;2023-11-19T08:37:29;37.15;;;6.15;;
76208;SDS011;64990;51.698;-0.292;2023-11-19T08:39:56;38.38;;;6.68;;
76208;SDS011;64990;51.698;-0.292;2023-11-19T08:42:22;36.10;;;6.10;;
76208;SDS011;64990;51.698;-0.292;2023-11-19T08:44:51;31.95;;;7.25;;
76208;SDS011;64990;51.698;-0.292;2023-11-19T08:47:19;29.55;;;4.43;;
76208;SDS011;64990;51.698;-0.292;2023-11-19T08:49:47;24.95;;;5.25;;
76208;SDS011;64990;51.698;-0.292;2023-11-19T08:52:13;35.50;;;7.63;;
76208;SDS011;64990;51.698;-0.292;2023-11-19T08:54:43;29.23;;;6.28;;
76208;SDS011;64990;51.698;-0.292;2023-11-19T08:57:09;62.00;;;9.10;;
76208;SDS011;64990;51.698;-0.292;2023-11-19T08:59:35;37.53;;;7.38;;
76208;SDS011;64990;51.698;-0.292;2023-11-19T09:02:04;32.90;;;4.43;;
76208;SDS011;64990;51.698;-0.292;2023-11-19T09:04:31;23.45;;;3.72;;
76208;SDS011;64990;51.698;-0.292;2023-11-19T09:06:57;35.72;;;6.32;;
76208;SDS011;64990;51.698;-0.292;2023-11-19T09:09:23;22.38;;;4.50;;
76208;SDS011;64990;51.698;-0.292;2023-11-19T09:11:50;23.35;;;4.72;;
76208;SDS011;64990;51.698;-0.292;2023-11-19T09:14:17;44.53;;;7.90;;
76208;SDS011;64990;51.698;-0.292;2023-11-19T09:16:51;18.77;;;4.60;;
76208;SDS011;64990;51.698;-0.292;2023-11-19T09:19:17;22.60;;;5.95;;
76208;SDS011;64990;51.698;-0.292;2023-11-19T09:21:43;44.25;;;6.30;;
76208;SDS011;64990;51.698;-0.292;2023-11-19T09:24:09;43.53;;;7.40;;
76208;SDS011;64990;51.698;-0.292;2023-11-19T09:26:35;28.20;;;6.28;;
76208;SDS011;64990;51.698;-0.292;2023-11-19T09:29:04;17.90;;;4.75;;
76208;SDS011;64990;51.698;-0.292;2023-11-19T09:31:30;18.45;;;4.25;;
76208;SDS011;64990;51.698;-0.292;2023-11-19T09:33:57;19.35;;;4.72;;
76208;SDS011;64990;51.698;-0.292;2023-11-19T09:36:23;34.58;;;5.57;;
76208;SDS011;64990;51.698;-0.292;2023-11-19T09:38:49;23.63;;;3.47;;
76208;SDS011;64990;51.698;-0.292;2023-11-19T09:41:15;25.30;;;4.20;;
76208;SDS011;64990;51.698;-0.292;2023-11-19T09:43:41;36.20;;;4.22;;
76208;SDS011;64990;51.698;-0.292;2023-11-19T09:46:12;29.45;;;4.78;;
76208;SDS011;64990;51.698;-0.292;2023-11-19T09:48:39;26.60;;;5.47;;
76208;SDS011;64990;51.698;-0.292;2023-11-19T09:51:06;24.20;;;5.40;;
76208;SDS011;64990;51.698;-0.292;2023-11-19T09:53:32;27.13;;;3.55;;
76208;SDS011;64990;51.698;-0.292;2023-11-19T09:56:02;24.00;;;4.05;;
76208;SDS011;64990;51.698;-0.292;2023-11-19T09:58:31;30.25;;;5.00;;
76208;SDS011;64990;51.698;-0.292;2023-11-19T10:00:57;26.40;;;4.38;;
76208;SDS011;64990;51.698;-0.292;2023-11-19T10:03:24;22.70;;;5.03;;
76208;SDS011;64990;51.698;-0.292;2023-11-19T10:05:53;21.65;;;5.22;;
76208;SDS011;64990;51.698;-0.292;2023-11-19T10:08:20;28.52;;;5.57;;
76208;SDS011;64990;51.698;-0.292;2023-11-19T10:10:47;16.45;;;3.97;;
76208;SDS011;64990;51.698;-0.292;2023-11-19T10:13:13;26.08;;;3.95;;
76208;SDS011;64990;51.698;-0.292;2023-11-19T10:15:40;21.52;;;3.33;;
76208;SDS011;64990;51.698;-0.292;2023-11-19T10:18:06;32.85;;;6.15;;
76208;SDS011;64990;51.698;-0.292;2023-11-19T10:20:36;13.05;;;5.03;;
76208;SDS011;64990;51.698;-0.292;2023-11-19T10:23:02;25.45;;;5.18;;
76208;SDS011;64990;51.698;-0.292;2023-11-19T10:25:28;19.08;;;4.07;;
76208;SDS011;64990;51.698;-0.292;2023-11-19T10:27:55;34.60;;;5.72;;
76208;SDS011;64990;51.698;-0.292;2023-11-19T10:30:22;18.92;;;4.68;;
76208;SDS011;64990;51.698;-0.292;2023-11-19T10:33:07;33.03;;;4.38;;
76208;SDS011;64990;51.698;-0.292;2023-11-19T10:35:34;43.92;;;6.97;;
76208;SDS011;64990;51.698;-0.292;2023-11-19T10:38:01;31.20;;;5.95;;
76208;SDS011;64990;51.698;-0.292;2023-11-19T10:40:39;38.40;;;4.88;;
76208;SDS011;64990;51.698;-0.292;2023-11-19T10:43:05;25.42;;;4.50;;
76208;SDS011;64990;51.698;-0.292;2023-11-19T10:45:33;32.88;;;4.70;;
76208;SDS011;64990;51.698;-0.292;2023-11-19T10:47:59;20.20;;;5.47;;
76208;SDS011;64990;51.698;-0.292;2023-11-19T10:50:28;39.78;;;5.22;;
76208;SDS011;64990;51.698;-0.292;2023-11-19T10:52:56;42.30;;;7.30;;
76208;SDS011;64990;51.698;-0.292;2023-11-19T10:55:26;22.23;;;3.92;;
76208;SDS011;64990;51.698;-0.292;2023-11-19T10:57:52;118.82;;;8.32;;
76208;SDS011;64990;51.698;-0.292;2023-11-19T11:00:20;27.58;;;5.97;;
76208;SDS011;64990;51.698;-0.292;2023-11-19T11:02:48;65.70;;;6.07;;
76208;SDS011;64990;51.698;-0.292;2023-11-19T11:05:16;27.98;;;3.85;;
76208;SDS011;64990;51.698;-0.292;2023-11-19T11:07:42;42.53;;;5.75;;
76208;SDS011;64990;51.698;-0.292;2023-11-19T11:10:09;23.90;;;4.68;;
76208;SDS011;64990;51.698;-0.292;2023-11-19T11:12:36;42.58;;;7.75;;
76208;SDS011;64990;51.698;-0.292;2023-11-19T11:15:03;33.35;;;4.65;;
76208;SDS011;64990;51.698;-0.292;2023-11-19T11:17:30;26.33;;;4.55;;
76208;SDS011;64990;51.698;-0.292;2023-11-19T11:19:57;39.63;;;7.05;;
76208;SDS011;64990;51.698;-0.292;2023-11-19T11:22:23;21.80;;;4.50;;
76208;SDS011;64990;51.698;-0.292;2023-11-19T11:25:26;29.23;;;5.38;;
76208;SDS011;64990;51.698;-0.292;2023-11-19T11:27:57;23.52;;;4.32;;
76208;SDS011;64990;51.698;-0.292;2023-11-19T11:33:00;26.70;;;4.85;;
76208;SDS011;64990;51.698;-0.292;2023-11-19T11:35:47;37.08;;;4.78;;
76208;SDS011;64990;51.698;-0.292;2023-11-19T11:38:16;22.00;;;4.30;;
76208;SDS011;64990;51.698;-0.292;2023-11-19T11:41:14;14.30;;;3.35;;
76208;SDS011;64990;51.698;-0.292;2023-11-19T11:46:53;35.75;;;4.47;;
76208;SDS011;64990;51.698;-0.292;2023-11-19T11:48:58;18.23;;;3.05;;
76208;SDS011;64990;51.698;-0.292;2023-11-19T11:54:31;17.75;;;4.65;;
76208;SDS011;64990;51.698;-0.292;2023-11-19T12:02:08;10.38;;;1.70;;
76208;SDS011;64990;51.698;-0.292;2023-11-19T12:04:35;27.23;;;4.47;;
76208;SDS011;64990;51.698;-0.292;2023-11-19T12:07:04;12.98;;;2.38;;
76208;SDS011;64990;51.698;-0.292;2023-11-19T12:09:31;9.48;;;2.55;;
76208;SDS011;64990;51.698;-0.292;2023-11-19T12:22:28;11.82;;;2.42;;
76208;SDS011;64990;51.698;-0.292;2023-11-19T12:24:54;18.88;;;4.07;;
76208;SDS011;64990;51.698;-0.292;2023-11-19T12:27:21;22.45;;;3.08;;
76208;SDS011;64990;51.698;-0.292;2023-11-19T12:29:47;16.55;;;3.65;;
76208;SDS011;64990;51.698;-0.292;2023-11-19T12:32:14;20.30;;;2.95;;
76208;SDS011;64990;51.698;-0.292;2023-11-19T12:34:40;19.65;;;2.95;;
76208;SDS011;64990;51.698;-0.292;2023-11-19T12:37:06;12.63;;;2.80;;
76208;SDS011;64990;51.698;-0.292;2023-11-19T12:39:33;10.20;;;2.40;;
76208;SDS011;64990;51.698;-0.292;2023-11-19T12:41:59;26.88;;;3.72;;
76208;SDS011;64990;51.698;-0.292;2023-11-19T12:44:25;12.15;;;3.10;;
76208;SDS011;64990;51.698;-0.292;2023-11-19T12:47:05;10.75;;;3.05;;
76208;SDS011;64990;51.698;-0.292;2023-11-19T12:49:36;12.98;;;2.33;;
76208;SDS011;64990;51.698;-0.292;2023-11-19T12:52:10;20.98;;;3.78;;
76208;SDS011;64990;51.698;-0.292;2023-11-19T12:57:04;18.02;;;4.43;;
76208;SDS011;64990;51.698;-0.292;2023-11-19T12:59:30;13.88;;;3.25;;
76208;SDS011;64990;51.698;-0.292;2023-11-19T13:01:57;19.45;;;3.80;;
76208;SDS011;64990;51.698;-0.292;2023-11-19T13:04:27;20.65;;;3.75;;
76208;SDS011;64990;51.698;-0.292;2023-11-19T13:06:55;15.85;;;3.08;;
76208;SDS011;64990;51.698;-0.292;2023-11-19T13:09:25;34.55;;;4.47;;
76208;SDS011;64990;51.698;-0.292;2023-11-19T13:11:51;19.60;;;3.53;;
76208;SDS011;64990;51.698;-0.292;2023-11-19T13:14:18;16.50;;;3.80;;
76208;SDS011;64990;51.698;-0.292;2023-11-19T13:16:44;42.47;;;6.07;;
76208;SDS011;64990;51.698;-0.292;2023-11-19T13:19:11;15.43;;;3.28;;
76208;SDS011;64990;51.698;-0.292;2023-11-19T13:21:38;18.25;;;2.35;;
76208;SDS011;64990;51.698;-0.292;2023-11-19T13:24:07;14.18;;;3.47;;
76208;SDS011;64990;51.698;-0.292;2023-11-19T13:26:34;17.98;;;2.00;;
76208;SDS011;64990;51.698;-0.292;2023-11-19T13:29:00;6.40;;;2.80;;
76208;SDS011;64990;51.698;-0.292;2023-11-19T13:31:26;10.25;;;3.05;;
76208;SDS011;64990;51.698;-0.292;2023-11-19T13:33:52;12.48;;;2.83;;
76208;SDS011;64990;51.698;-0.292;2023-11-19T13:36:18;26.25;;;2.42;;
76208;SDS011;64990;51.698;-0.292;2023-11-19T13:38:44;9.30;;;1.75;;
76208;SDS011;64990;51.698;-0.292;2023-11-19T13:41:12;11.95;;;1.98;;
76208;SDS011;64990;51.698;-0.292;2023-11-19T13:43:39;8.20;;;1.80;;
76208;SDS011;64990;51.698;-0.292;2023-11-19T13:46:05;9.00;;;2.20;;
76208;SDS011;64990;51.698;-0.292;2023-11-19T13:48:31;11.98;;;1.77;;
76208;SDS011;64990;51.698;-0.292;2023-11-19T13:50:57;9.88;;;2.25;;
76208;SDS011;64990;51.698;-0.292;2023-11-19T13:53:24;10.73;;;2.17;;
76208;SDS011;64990;51.698;-0.292;2023-11-19T13:55:51;6.30;;;2.05;;
76208;SDS011;64990;51.698;-0.292;2023-11-19T13:58:18;9.13;;;1.50;;
76208;SDS011;64990;51.698;-0.292;2023-11-19T14:00:44;11.43;;;2.45;;
76208;SDS011;64990;51.698;-0.292;2023-11-19T14:03:10;12.50;;;1.55;;
76208;SDS011;64990;51.698;-0.292;2023-11-19T14:05:37;10.77;;;1.55;;
76208;SDS011;64990;51.698;-0.292;2023-11-19T14:08:03;5.57;;;1.05;;
76208;SDS011;64990;51.698;-0.292;2023-11-19T14:10:37;6.82;;;1.92;;
76208;SDS011;64990;51.698;-0.292;2023-11-19T14:13:07;12.48;;;1.92;;
76208;SDS011;64990;51.698;-0.292;2023-11-19T14:15:33;6.80;;;1.95;;
76208;SDS011;64990;51.698;-0.292;2023-11-19T14:18:00;7.95;;;1.45;;
76208;SDS011;64990;51.698;-0.292;2023-11-19T14:20:26;2.22;;;1.15;;
76208;SDS011;64990;51.698;-0.292;2023-11-19T14:22:53;6.93;;;1.77;;
76208;SDS011;64990;51.698;-0.292;2023-11-19T14:25:19;6.90;;;1.65;;
76208;SDS011;64990;51.698;-0.292;2023-11-19T14:27:46;10.05;;;2.35;;
76208;SDS011;64990;51.698;-0.292;2023-11-19T14:30:13;8.02;;;1.65;;
76208;SDS011;64990;51.698;-0.292;2023-11-19T14:32:39;7.95;;;1.42;;
76208;SDS011;64990;51.698;-0.292;2023-11-19T14:35:07;5.85;;;1.50;;
76208;SDS011;64990;51.698;-0.292;2023-11-19T14:37:33;6.40;;;1.50;;
76208;SDS011;64990;51.698;-0.292;2023-11-19T14:39:59;5.78;;;1.08;;
76208;SDS011;64990;51.698;-0.292;2023-11-19T14:42:27;5.78;;;1.25;;
76208;SDS011;64990;51.698;-0.292;2023-11-19T14:44:53;6.13;;;0.65;;
76208;SDS011;64990;51.698;-0.292;2023-11-19T14:47:20;5.45;;;1.77;;
76208;SDS011;64990;51.698;-0.292;2023-11-19T14:49:47;7.13;;;1.60;;
76208;SDS011;64990;51.698;-0.292;2023-11-19T14:52:13;3.55;;;1.80;;
76208;SDS011;64990;51.698;-0.292;2023-11-19T14:54:39;5.00;;;1.60;;